Latest Weather Observations for Warra

IDT60801

Issued at 11:01 pm EST Sunday 26 April 2015 (issued every 30 minutes, with the page automatically refreshed every 10 minutes)

About weather observations | Map of weather stations | Latest weather observations for TAS | Other Formats
Station Details ID: 097024 Name: WARRA Lat: -43.06 Lon: 146.70 Height: 495.0 m
Data from the previous 72 hours. | See also: Recent months at Warra
Date/Time
EST
Temp
°C
App
Temp
°C
Dew
Point
Rel
Hum
%
Delta-T
°C
Wind Press
QNH
hPa
Press
MSL
hPa
Rain
since 9 am
mm
Dir
 
Spd
km/h
Gust
km/h
Spd
kts
Gust
kts
26/11:00pm 5.0 1.0 4.9 99 0.0 W 15 28 8 15 - - 2.4
26/10:30pm 5.0 1.4 5.0 100 0.0 W 13 26 7 14 - - 2.4
26/10:00pm 4.9 0.9 4.9 100 0.0 W 15 24 8 13 - - 2.2
26/09:30pm 4.9 1.6 4.8 99 0.0 W 11 26 6 14 - - 2.2
26/09:00pm 4.9 0.9 4.8 99 0.0 W 15 24 8 13 - - 2.2
26/08:30pm 4.8 0.8 4.7 99 0.0 WSW 15 32 8 17 - - 2.2
26/08:00pm 4.9 0.9 4.9 100 0.0 W 15 24 8 13 - - 2.2
26/07:30pm 5.3 1.8 5.3 100 0.0 WSW 13 22 7 12 - - 2.2
26/07:00pm 5.6 1.4 5.6 100 0.0 WSW 17 32 9 17 - - 2.0
26/06:30pm 5.7 1.9 5.7 100 0.0 W 15 24 8 13 - - 2.0
26/06:00pm 5.8 1.6 5.8 100 0.0 WSW 17 30 9 16 - - 2.0
26/05:30pm 5.9 2.5 5.9 100 0.0 W 13 32 7 17 - - 1.8
26/05:00pm 6.2 3.2 6.2 100 0.0 WSW 11 22 6 12 - - 1.6
26/04:30pm 6.6 3.3 6.5 99 0.0 W 13 24 7 13 - - 1.2
26/04:00pm 6.7 3.4 6.6 99 0.0 W 13 32 7 17 - - 1.0
26/03:30pm 7.0 3.4 6.6 97 0.2 W 15 28 8 15 - - 0.8
26/03:00pm 7.2 3.1 6.1 93 0.5 W 17 37 9 20 - - 0.6
26/02:30pm 8.1 3.4 5.0 81 1.4 W 19 32 10 17 - - 0.0
26/02:00pm 7.9 3.1 4.8 81 1.4 W 19 39 10 21 - - 0.0
26/01:30pm 8.0 3.3 5.1 82 1.3 WNW 19 30 10 16 - - 0.0
26/01:00pm 8.0 4.8 5.1 82 1.3 WNW 11 20 6 11 - - 0.0
26/12:30pm 7.7 2.9 4.8 82 1.3 W 19 35 10 19 - - 0.0
26/12:00pm 7.3 3.2 4.4 82 1.3 NW 15 30 8 16 - - 0.0
26/11:30am 7.8 4.5 4.7 81 1.4 W 11 19 6 10 - - 0.0
26/11:00am 7.3 3.9 3.9 79 1.5 W 11 17 6 9 - - 0.0
26/10:30am 7.0 2.0 3.6 79 1.5 WNW 19 35 10 19 - - 0.0
26/10:00am 7.2 2.9 3.4 77 1.7 WNW 15 32 8 17 - - 0.0
26/09:30am 6.7 2.5 3.7 81 1.3 WNW 15 32 8 17 - - 0.0
26/09:00am 6.5 3.0 3.5 81 1.3 WNW 11 20 6 11 - - 0.8
26/08:30am 5.4 1.6 3.9 90 0.7 NW 13 32 7 17 - - 0.8
26/08:00am 4.7 1.0 4.4 98 0.1 WNW 13 33 7 18 - - 0.8
26/07:30am 4.4 0.3 4.3 99 0.0 W 15 28 8 15 - - 0.8
26/07:00am 4.5 0.8 4.2 98 0.1 W 13 26 7 14 - - 0.6
26/06:30am 4.7 0.8 3.5 92 0.5 WNW 13 20 7 11 - - 0.6
26/06:00am 4.7 1.3 4.0 95 0.3 WNW 11 20 6 11 - - 0.6
26/05:30am 4.6 1.1 3.7 94 0.4 W 11 20 6 11 - - 0.6
26/05:00am 4.5 1.2 4.4 99 0.0 W 11 20 6 11 - - 0.6
26/04:30am 4.3 1.3 4.2 99 0.0 WNW 9 13 5 7 - - 0.6
26/04:00am 4.3 1.0 4.3 100 0.0 W 11 19 6 10 - - 0.6
26/03:30am 4.1 1.1 4.0 99 0.0 WNW 9 19 5 10 - - 0.4
26/03:00am 4.2 0.8 4.2 100 0.0 W 11 20 6 11 - - 0.4
26/02:30am 4.3 1.9 4.3 100 0.0 WSW 6 9 3 5 - - 0.4
26/02:00am 4.4 1.8 4.4 100 0.0 WSW 7 11 4 6 - - 0.4
26/01:30am 4.4 1.5 4.4 100 0.0 WSW 9 13 5 7 - - 0.4
26/01:00am 4.7 1.8 4.7 100 0.0 W 9 15 5 8 - - 0.4
26/12:30am 4.7 1.8 4.7 100 0.0 WSW 9 15 5 8 - - 0.4
26/12:00am 4.8 1.9 4.8 100 0.0 W 9 13 5 7 - - 0.4
 
Date/Time
EST
Temp
°C
App
Temp
°C
Dew
Point
Rel
Hum
%
Delta-T
°C
Wind Press
QNH
hPa
Press
MSL
hPa
Rain
since 9 am
mm
Dir
 
Spd
km/h
Gust
km/h
Spd
kts
Gust
kts
25/11:30pm 4.8 1.9 4.8 100 0.0 W 9 13 5 7 - - 0.4
25/11:00pm 4.9 3.4 4.9 100 0.0 WSW 2 11 1 6 - - 0.4
25/10:30pm 5.2 4.1 5.2 100 0.0 CALM 0 0 0 0 - - 0.4
25/10:00pm 5.4 4.4 5.4 100 0.0 CALM 0 0 0 0 - - 0.4
25/09:30pm 5.4 4.0 5.4 100 0.0 S 2 7 1 4 - - 0.4
25/09:00pm 5.4 4.4 5.4 100 0.0 CALM 0 0 0 0 - - 0.4
25/08:30pm 5.3 3.5 5.3 100 0.0 SSE 4 9 2 5 - - 0.4
25/08:00pm 5.5 3.3 5.5 100 0.0 SSW 6 7 3 4 - - 0.4
25/07:30pm 5.6 3.3 5.6 100 0.0 SSW 7 9 4 5 - - 0.4
25/07:00pm 5.7 2.6 5.6 99 0.0 SSW 11 15 6 8 - - 0.2
25/06:30pm 6.2 3.6 5.9 98 0.1 S 9 15 5 8 - - 0.2
25/06:00pm 6.6 4.2 5.4 92 0.5 SSW 7 13 4 7 - - 0.2
25/05:30pm 7.2 5.1 5.7 90 0.7 SSW 6 11 3 6 - - 0.2
25/05:00pm 7.4 5.4 4.5 82 1.3 SW 4 9 2 5 - - 0.2
25/04:30pm 7.7 4.8 4.8 82 1.3 WSW 9 15 5 8 - - 0.2
25/04:00pm 8.0 5.2 5.3 83 1.2 WSW 9 15 5 8 - - 0.2
25/03:30pm 8.5 5.8 5.6 82 1.3 WSW 9 13 5 7 - - 0.2
25/03:00pm 8.6 5.5 5.4 80 1.5 SW 11 17 6 9 - - 0.2
25/02:30pm 8.7 5.2 5.6 81 1.4 WSW 13 20 7 11 - - 0.2
25/02:00pm 8.8 7.4 7.3 90 0.7 S 4 11 2 6 - - 0.2
25/01:30pm 8.4 6.2 7.8 96 0.3 SW 9 15 5 8 - - 0.2
25/01:00pm 7.7 5.8 7.7 100 0.0 SSW 7 11 4 6 - - 0.2
25/12:30pm 6.7 3.8 6.7 100 0.0 SSW 11 20 6 11 - - 0.2
25/12:00pm 6.7 3.8 6.7 100 0.0 S 11 17 6 9 - - 0.2
25/11:30am 7.0 3.8 7.0 100 0.0 S 13 20 7 11 - - 0.2
25/11:00am 7.8 5.6 7.8 100 0.0 S 9 13 5 7 - - 0.2
25/10:30am 7.3 5.0 7.3 100 0.0 S 9 15 5 8 - - 0.2
25/10:00am 6.9 4.5 6.9 100 0.0 S 9 13 5 7 - - 0.0
25/09:30am 6.8 4.0 6.8 100 0.0 S 11 20 6 11 - - 0.0
25/09:00am 6.6 3.0 6.6 100 0.0 S 15 24 8 13 - - 2.0
25/08:30am 6.9 3.7 6.9 100 0.0 S 13 20 7 11 - - 2.0
25/08:00am 6.8 4.0 6.8 100 0.0 SSW 11 24 6 13 - - 1.8
25/07:30am 7.1 4.7 7.1 100 0.0 SSW 9 20 5 11 - - 1.6
25/07:00am 7.2 4.8 7.2 100 0.0 SSW 9 15 5 8 - - 1.2
25/06:30am 7.2 4.8 7.2 100 0.0 WSW 9 13 5 7 - - 0.8
25/06:00am 7.1 5.7 7.1 100 0.0 W 4 7 2 4 - - 0.2
25/05:30am 7.0 6.3 7.0 100 0.0 CALM 0 0 0 0 - - 0.2
25/05:00am 7.0 5.5 7.0 100 0.0 NNW 4 9 2 5 - - 0.2
25/04:30am 7.2 4.8 7.2 100 0.0 W 9 15 5 8 - - 0.2
25/04:00am 7.5 5.6 7.5 100 0.0 W 7 13 4 7 - - 0.2
25/03:30am 7.5 4.8 7.5 100 0.0 WSW 11 17 6 9 - - 0.2
25/03:00am 7.6 5.0 7.6 100 0.0 WSW 11 17 6 9 - - 0.2
25/02:30am 7.6 5.3 7.5 99 0.0 W 9 15 5 8 - - 0.2
25/02:00am 7.8 5.6 7.7 99 0.0 WSW 9 17 5 9 - - 0.2
25/01:30am 7.7 5.5 7.7 100 0.0 W 9 15 5 8 - - 0.2
25/01:00am 7.6 5.3 7.6 100 0.0 W 9 19 5 10 - - 0.2
25/12:30am 7.8 5.6 7.7 99 0.0 WSW 9 17 5 9 - - 0.2
25/12:00am 7.8 5.5 7.5 98 0.1 W 9 17 5 9 - - 0.2
 
Date/Time
EST
Temp
°C
App
Temp
°C
Dew
Point
Rel
Hum
%
Delta-T
°C
Wind Press
QNH
hPa
Press
MSL
hPa
Rain
since 9 am
mm
Dir
 
Spd
km/h
Gust
km/h
Spd
kts
Gust
kts
24/11:30pm 7.8 4.8 7.7 99 0.0 W 13 20 7 11 - - 0.2
24/11:00pm 7.8 4.8 7.8 100 0.0 W 13 20 7 11 - - 0.2
24/10:30pm 8.2 6.1 8.2 100 0.0 WSW 9 20 5 11 - - 0.2
24/10:00pm 8.3 5.8 8.3 100 0.0 W 11 24 6 13 - - 0.2
24/09:30pm 8.3 5.1 8.3 100 0.0 WSW 15 28 8 15 - - 0.2
24/09:00pm 8.7 6.7 8.7 100 0.0 W 9 17 5 9 - - 0.0
24/08:30pm 8.8 6.8 8.5 98 0.1 W 9 15 5 8 - - 0.0
24/08:00pm 8.7 6.2 8.3 97 0.2 W 11 15 6 8 - - 0.0
24/07:30pm 9.0 6.5 8.2 95 0.4 W 11 20 6 11 - - 0.0
24/07:00pm 9.2 6.3 8.1 93 0.5 W 13 19 7 10 - - 0.0
24/06:30pm 9.7 6.5 8.6 93 0.6 WSW 15 22 8 12 - - 0.0
24/06:00pm 9.8 7.3 8.4 91 0.7 WSW 11 19 6 10 - - 0.0
24/05:30pm 9.8 6.9 8.2 90 0.8 W 13 20 7 11 - - 0.0
24/05:00pm 10.3 7.9 8.6 89 0.9 W 11 20 6 11 - - 0.0
24/04:30pm 10.8 8.4 8.6 86 1.1 W 11 15 6 8 - - 0.0
24/04:00pm 12.2 10.2 8.7 79 1.8 W 9 15 5 8 - - 0.0
24/03:30pm 12.0 9.8 9.2 83 1.4 W 11 24 6 13 - - 0.0
24/03:00pm 12.3 10.4 9.0 80 1.7 WSW 9 17 5 9 - - 0.0
24/02:30pm 12.7 10.8 9.0 78 1.9 WSW 9 17 5 9 - - 0.0
24/02:00pm 12.9 10.8 9.7 81 1.7 W 11 19 6 10 - - 0.0
24/01:30pm 12.1 9.9 9.3 83 1.4 WSW 11 22 6 12 - - 0.0
24/01:00pm 12.3 10.1 9.5 83 1.5 WSW 11 24 6 13 - - 0.0
24/12:30pm 12.6 11.0 10.3 86 1.2 WSW 9 13 5 7 - - 0.0
24/12:00pm 11.9 10.3 10.3 90 0.8 W 9 15 5 8 - - 0.0
24/11:30am 11.2 10.8 11.2 100 0.0 NE 4 6 2 3 - - 0.0
24/11:00am 10.9 10.1 10.9 100 0.0 ENE 6 7 3 4 - - 0.0
24/10:30am 10.5 9.6 10.5 100 0.0 ENE 6 7 3 4 - - 0.0
24/10:00am 10.0 10.1 10.0 100 0.0 CALM 0 0 0 0 - - 0.0
24/09:30am 9.8 8.7 9.8 100 0.0 NNW 6 7 3 4 - - 0.0
24/09:00am 9.0 7.6 9.0 100 0.0 WSW 6 7 3 4 - - -
24/08:30am 8.5 8.2 8.5 100 0.0 CALM 0 0 0 0 - - -
24/08:00am 8.3 6.8 8.3 100 0.0 N 6 9 3 5 - - -
24/07:30am 8.1 7.7 8.1 100 0.0 CALM 0 0 0 0 - - -
24/07:00am 8.1 7.7 8.1 100 0.0 CALM 0 0 0 0 - - -
24/06:30am 7.8 6.2 7.8 100 0.0 NW 6 7 3 4 - - -
24/06:00am 7.8 6.5 7.8 100 0.0 S 4 7 2 4 - - -
24/05:30am 7.2 5.4 7.2 100 0.0 W 6 7 3 4 - - -
24/05:00am 7.2 5.4 7.2 100 0.0 W 6 7 3 4 - - -
24/04:30am 7.0 5.9 7.0 100 0.0 ESE 2 6 1 3 - - -
24/04:00am 6.9 4.9 6.9 100 0.0 W 7 11 4 6 - - -
24/03:30am 7.2 6.6 7.2 100 0.0 CALM 0 0 0 0 - - -
24/03:00am 7.1 4.7 7.1 100 0.0 WNW 9 11 5 6 - - -
24/02:30am 7.1 6.4 7.1 100 0.0 CALM 0 0 0 0 - - -
24/02:00am 7.4 6.0 7.4 100 0.0 NNW 4 9 2 5 - - -
24/01:30am 7.0 5.2 7.0 100 0.0 W 6 9 3 5 - - -
24/01:00am 6.8 4.9 6.8 100 0.0 WSW 6 7 3 4 - - -
24/12:00am 7.4 5.7 7.4 100 0.0 W 6 7 3 4 - - 0.0
 
Date/Time
EST
Temp
°C
App
Temp
°C
Dew
Point
Rel
Hum
%
Delta-T
°C
Wind Press
QNH
hPa
Press
MSL
hPa
Rain
since 9 am
mm
Dir
 
Spd
km/h
Gust
km/h
Spd
kts
Gust
kts
23/11:30pm 8.3 7.2 8.3 100 0.0 NW 4 7 2 4 - - 0.0

Other Formats:

Comma delimited format used in spreadsheet applications
http://www.bom.gov.au/fwo/IDT60801/IDT60801.95962.axf

JavaScript Object Notation format (JSON) in row-major order
http://www.bom.gov.au/fwo/IDT60801/IDT60801.95962.json